Time;durP1;ratioP1;P1;durP2;ratioP2;P2;SDS_P1;SDS_P2;PMS_P1;PMS_P2;Temp;Humidity;BMP_temperature;BMP_pressure;BME280_temperature;BME280_humidity;BME280_pressure;Samples;Min_cycle;Max_cycle;Signal;HPM_P1;HPM_P2
2021/12/23 00:02:41;;;;;;;11.18;6.75;;;;;;;-8.15;58.77;101422.34;1651946;87;21928;-60
2021/12/23 00:05:47;;;;;;;13.83;6.72;;;;;;;-8.21;59.00;101423.81;1670965;86;21355;-58
2021/12/23 00:08:57;;;;;;;12.47;7.30;;;;;;;-8.24;59.24;101419.05;1652048;86;21439;-60
2021/12/23 00:12:04;;;;;;;10.30;6.22;;;;;;;-8.25;59.54;101419.96;1672328;85;21350;-60
2021/12/23 00:15:17;;;;;;;10.32;5.87;;;;;;;-8.24;59.80;101425.23;1652144;86;21382;-59
2021/12/23 00:24:50;;;;;;;9.63;5.60;;;;;;;-8.29;60.31;101427.11;1670830;86;21398;-59
2021/12/23 00:27:56;;;;;;;7.37;5.67;;;;;;;-8.27;60.45;101433.27;1652115;86;21222;-60
2021/12/23 00:31:01;;;;;;;10.48;6.17;;;;;;;-8.24;60.68;101430.55;1671599;85;21264;-60
2021/12/23 00:34:10;;;;;;;8.53;5.75;;;;;;;-8.15;60.89;101442.25;1652018;86;21419;-59
2021/12/23 00:37:17;;;;;;;9.70;6.17;;;;;;;-8.06;60.94;101440.75;1652889;83;21260;-58
2021/12/23 00:40:23;;;;;;;8.10;5.85;;;;;;;-8.01;60.93;101443.30;1651869;87;21238;-59
2021/12/23 00:43:32;;;;;;;11.03;5.92;;;;;;;-8.00;60.96;101441.94;1651932;87;21213;-60
2021/12/23 00:46:39;;;;;;;13.15;6.28;;;;;;;-7.99;61.06;101434.84;1671123;86;21873;-59
2021/12/23 00:49:49;;;;;;;14.18;7.28;;;;;;;-8.00;61.16;101447.24;1652303;86;21403;-59
2021/12/23 00:52:59;;;;;;;14.68;7.12;;;;;;;-8.02;61.24;101437.55;1652003;87;21240;-59
2021/12/23 00:56:04;;;;;;;10.45;5.83;;;;;;;-8.04;61.39;101440.71;1671167;85;21335;-58
2021/12/23 00:59:13;;;;;;;10.38;6.55;;;;;;;-8.06;61.51;101437.20;1652464;86;22191;-59
2021/12/23 01:02:18;;;;;;;10.10;5.87;;;;;;;-8.07;61.59;101439.45;1636378;87;21774;-59
2021/12/23 01:05:27;;;;;;;8.85;6.08;;;;;;;-8.16;61.63;101445.83;1671104;85;21376;-59
2021/12/23 01:08:34;;;;;;;11.50;6.53;;;;;;;-8.18;61.79;101437.02;1671157;85;21241;-59
2021/12/23 01:11:42;;;;;;;10.20;6.22;;;;;;;-8.21;61.96;101443.72;1652306;86;21244;-61
2021/12/23 01:14:57;;;;;;;9.33;6.22;;;;;;;-8.22;62.13;101447.73;1671126;86;21253;-59
2021/12/23 01:18:13;;;;;;;9.78;6.15;;;;;;;-8.24;62.27;101444.27;1652058;86;21367;-59
2021/12/23 01:21:16;;;;;;;8.55;5.97;;;;;;;-8.29;62.37;101453.66;1671098;85;21371;-59
2021/12/23 01:24:29;;;;;;;11.80;6.37;;;;;;;-8.32;62.57;101436.48;1657369;86;21327;-59
2021/12/23 01:27:36;;;;;;;11.95;6.28;;;;;;;-8.32;62.68;101448.42;1659048;86;21275;-60
2021/12/23 01:30:44;;;;;;;11.65;6.25;;;;;;;-8.32;62.76;101454.17;1659134;86;21421;-60
2021/12/23 01:33:51;;;;;;;10.45;6.72;;;;;;;-8.32;62.94;101453.73;1671231;85;21355;-60
2021/12/23 01:36:57;;;;;;;18.75;8.20;;;;;;;-8.29;63.05;101439.54;1652034;86;21254;-60
2021/12/23 01:40:06;;;;;;;11.75;7.05;;;;;;;-8.28;63.12;101449.23;1667910;83;21427;-59
2021/12/23 01:43:13;;;;;;;10.18;5.67;;;;;;;-8.29;63.26;101439.54;1655183;86;21706;-60
2021/12/23 01:46:18;;;;;;;13.13;6.55;;;;;;;-8.29;63.47;101441.72;1654999;86;21727;-60
2021/12/23 01:49:26;;;;;;;16.62;7.62;;;;;;;-8.29;63.64;101443.05;1666516;86;21388;-60
2021/12/23 01:52:31;;;;;;;12.93;6.65;;;;;;;-8.27;63.80;101453.19;1654905;86;21252;-59
2021/12/23 01:55:36;;;;;;;10.70;6.08;;;;;;;-8.26;63.94;101441.65;1654723;86;21213;-59
2021/12/23 01:58:47;;;;;;;9.13;6.20;;;;;;;-8.25;64.07;101447.84;1654725;86;21268;-59
2021/12/23 02:01:53;;;;;;;15.30;6.47;;;;;;;-8.26;64.15;101455.40;1661765;85;21250;-58
2021/12/23 02:05:01;;;;;;;11.25;6.00;;;;;;;-8.35;64.18;101448.48;1645024;86;21412;-59
2021/12/23 02:08:09;;;;;;;9.15;5.70;;;;;;;-8.44;64.34;101450.02;1628125;87;21383;-59
2021/12/23 02:11:17;;;;;;;12.28;7.12;;;;;;;-8.53;64.46;101452.84;1639017;87;21270;-59
2021/12/23 02:14:23;;;;;;;12.37;6.55;;;;;;;-8.61;64.67;101450.78;1639102;87;21440;-59
2021/12/23 02:17:27;;;;;;;9.38;6.25;;;;;;;-8.65;64.82;101445.13;1607454;87;21353;-59
2021/12/23 02:20:35;;;;;;;11.45;7.15;;;;;;;-8.69;64.88;101450.09;1639245;87;21458;-58
2021/12/23 02:23:41;;;;;;;10.72;7.00;;;;;;;-8.78;64.92;101451.58;1639172;86;21768;-59
2021/12/23 02:26:48;;;;;;;16.80;9.48;;;;;;;-8.85;65.03;101450.41;1639440;87;21238;-59
2021/12/23 02:29:56;;;;;;;20.52;10.80;;;;;;;-8.88;65.14;101451.35;1639446;87;21428;-59
2021/12/23 02:33:01;;;;;;;15.93;8.90;;;;;;;-8.93;65.13;101457.19;1639899;87;21747;-60
2021/12/23 02:36:09;;;;;;;22.58;12.53;;;;;;;-8.98;65.16;101455.50;1639364;87;21433;-60
2021/12/23 02:39:15;;;;;;;19.42;10.82;;;;;;;-9.04;65.29;101461.81;1640813;85;21391;-58
2021/12/23 02:42:24;;;;;;;16.52;8.70;;;;;;;-9.04;65.37;101465.79;1656851;86;21295;-58
2021/12/23 02:45:31;;;;;;;11.20;7.30;;;;;;;-9.05;65.34;101471.13;1671577;85;21249;-59
2021/12/23 02:48:39;;;;;;;12.30;7.35;;;;;;;-9.06;65.39;101475.54;1671246;86;21379;-59
2021/12/23 02:51:47;;;;;;;12.93;7.30;;;;;;;-9.05;65.35;101480.41;1671323;86;21379;-59
2021/12/23 02:55:04;;;;;;;13.00;6.75;;;;;;;-9.06;65.34;101479.95;1671315;86;21241;-59
2021/12/23 02:58:10;;;;;;;14.78;7.22;;;;;;;-9.06;65.10;101474.66;1671302;86;21292;-59
2021/12/23 03:01:17;;;;;;;12.10;7.90;;;;;;;-9.06;65.10;101474.66;1671240;86;21296;-59
2021/12/23 03:04:25;;;;;;;11.30;6.90;;;;;;;-9.04;65.02;101475.06;1671380;85;21383;-60
2021/12/23 03:07:30;;;;;;;12.95;6.55;;;;;;;-8.92;64.99;101478.81;1671357;86;21387;-58
2021/12/23 03:10:36;;;;;;;10.55;6.45;;;;;;;-8.87;64.73;101475.63;1671391;86;21320;-58
2021/12/23 03:13:43;;;;;;;10.35;6.75;;;;;;;-8.87;64.73;101475.63;1671494;86;21461;-58
2021/12/23 03:16:49;;;;;;;10.98;6.40;;;;;;;-8.85;64.47;101486.21;1671397;86;21229;-59
2021/12/23 03:19:56;;;;;;;9.70;6.72;;;;;;;-8.79;64.19;101490.06;1671465;86;21917;-58
2021/12/23 03:23:01;;;;;;;9.95;6.22;;;;;;;-8.79;64.19;101490.06;1671388;86;21245;-59
2021/12/23 03:26:08;;;;;;;10.93;5.70;;;;;;;-8.69;64.24;101491.22;1671408;86;21221;-57
2021/12/23 03:29:15;;;;;;;12.93;7.53;;;;;;;-8.56;64.15;101498.02;1671361;86;21406;-59
2021/12/23 03:32:21;;;;;;;14.80;8.23;;;;;;;-8.50;63.84;101496.56;1671599;86;21248;-58
2021/12/23 03:35:28;;;;;;;11.90;6.95;;;;;;;-8.48;63.74;101492.11;1671498;86;21260;-58
2021/12/23 03:38:33;;;;;;;12.23;7.37;;;;;;;-8.47;63.53;101495.64;1671552;86;21312;-60
2021/12/23 03:41:39;;;;;;;15.13;7.30;;;;;;;-8.51;63.41;101491.28;1678288;80;21259;-59
2021/12/23 03:44:49;;;;;;;12.53;6.97;;;;;;;-8.48;63.38;101500.55;1675457;85;21292;-59
2021/12/23 03:47:58;;;;;;;12.75;8.08;;;;;;;-8.47;63.36;101495.64;1675531;85;21292;-58
2021/12/23 03:51:05;;;;;;;12.13;6.75;;;;;;;-8.39;63.56;101508.31;1661420;86;21224;-58
2021/12/23 03:54:10;;;;;;;12.33;7.62;;;;;;;-8.37;63.40;101500.73;1661443;85;21385;-58
2021/12/23 03:57:16;;;;;;;11.03;7.05;;;;;;;-8.32;63.48;101507.27;1658328;85;21446;-58
2021/12/23 04:00:25;;;;;;;14.75;7.25;;;;;;;-8.30;63.48;101511.66;1675527;85;21233;-59
2021/12/23 04:03:32;;;;;;;19.07;7.87;;;;;;;-8.31;63.25;101504.58;1661637;85;21264;-59
2021/12/23 04:06:40;;;;;;;12.98;7.35;;;;;;;-8.27;63.53;101514.25;1661501;86;21254;-59
2021/12/23 04:09:49;;;;;;;10.72;6.42;;;;;;;-8.20;63.51;101514.53;1661499;85;21244;-60
2021/12/23 04:12:55;;;;;;;11.95;6.85;;;;;;;-8.13;63.52;101517.46;1661466;85;21240;-59
2021/12/23 04:16:05;;;;;;;11.12;6.78;;;;;;;-8.09;63.36;101517.84;1661436;86;21247;-59
2021/12/23 04:19:11;;;;;;;11.63;6.72;;;;;;;-8.05;63.31;101521.28;1661475;85;21267;-59
2021/12/23 04:22:20;;;;;;;10.18;6.80;;;;;;;-8.01;63.21;101534.94;1661546;86;21264;-60
2021/12/23 04:25:29;;;;;;;12.10;6.65;;;;;;;-8.06;63.14;101523.08;1661444;86;21275;-58
2021/12/23 04:28:44;;;;;;;12.55;7.12;;;;;;;-8.00;63.33;101529.59;1645467;85;21241;-58
2021/12/23 04:31:45;;;;;;;16.37;8.00;;;;;;;-7.95;63.38;101530.38;1675655;85;21379;-58
2021/12/23 04:34:54;;;;;;;15.53;8.75;;;;;;;-7.91;63.42;101529.83;1674540;84;21375;-58
2021/12/23 04:38:01;;;;;;;13.98;7.30;;;;;;;-7.88;63.53;101527.13;1675643;85;21881;-58
2021/12/23 04:41:08;;;;;;;16.40;8.15;;;;;;;-7.80;63.55;101534.02;1661494;86;21753;-58
2021/12/23 04:44:14;;;;;;;14.35;7.67;;;;;;;-7.81;63.52;101534.93;1656745;85;21255;-57
2021/12/23 04:47:20;;;;;;;15.70;7.83;;;;;;;-7.88;63.49;101531.97;1655586;86;21729;-59
2021/12/23 04:50:27;;;;;;;12.13;6.65;;;;;;;-7.97;63.58;101537.93;1655525;86;21389;-59
2021/12/23 04:53:35;;;;;;;11.10;6.37;;;;;;;-8.07;63.50;101540.38;1655550;85;21376;-59
2021/12/23 04:56:40;;;;;;;9.73;6.12;;;;;;;-8.20;63.39;101540.20;1655449;86;21204;-59
2021/12/23 04:59:49;;;;;;;11.78;6.22;;;;;;;-8.26;63.55;101537.23;1655590;85;21879;-58
2021/12/23 05:02:58;;;;;;;10.70;6.50;;;;;;;-8.30;63.34;101547.50;1651421;86;21382;-58
2021/12/23 05:06:05;;;;;;;12.10;7.15;;;;;;;-8.34;63.39;101548.45;1645179;86;21280;-57
2021/12/23 05:09:13;;;;;;;9.55;5.22;;;;;;;-8.35;62.97;101555.12;1651885;86;21304;-59
2021/12/23 05:12:21;;;;;;;9.73;5.55;;;;;;;-8.47;62.29;101557.58;1651602;87;21279;-59
2021/12/23 05:15:30;;;;;;;9.50;5.35;;;;;;;-8.65;61.74;101555.25;1651601;87;21269;-59
2021/12/23 05:18:36;;;;;;;9.63;5.22;;;;;;;-8.79;61.30;101561.25;1666461;85;21249;-58
2021/12/23 05:21:42;;;;;;;9.18;5.28;;;;;;;-8.91;61.27;101560.12;1666292;86;21857;-58
2021/12/23 05:24:47;;;;;;;10.28;4.85;;;;;;;-8.97;61.39;101561.55;1666241;86;21289;-59
2021/12/23 05:27:55;;;;;;;8.95;4.70;;;;;;;-8.95;61.40;101567.72;1666240;86;21241;-59
2021/12/23 05:31:01;;;;;;;11.63;5.37;;;;;;;-8.95;61.16;101567.72;1666257;86;21281;-58
2021/12/23 05:34:10;;;;;;;8.03;5.25;;;;;;;-8.94;61.18;101574.77;1666236;86;21353;-58
2021/12/23 05:37:16;;;;;;;8.23;4.90;;;;;;;-8.92;60.82;101575.62;1658837;86;21253;-58
2021/12/23 05:40:25;;;;;;;10.28;6.15;;;;;;;-8.96;60.50;101588.95;1634110;87;21244;-58
2021/12/23 05:43:32;;;;;;;9.03;6.10;;;;;;;-9.00;60.36;101588.56;1644296;80;21339;-58
2021/12/23 05:46:37;;;;;;;15.53;6.03;;;;;;;-9.02;60.23;101585.94;1642085;87;21240;-58
2021/12/23 05:49:46;;;;;;;10.18;5.22;;;;;;;-8.97;60.41;101595.18;1619972;87;21261;-59
2021/12/23 05:52:54;;;;;;;10.72;5.78;;;;;;;-8.89;60.47;101603.86;1632426;86;21240;-59
2021/12/23 05:55:59;;;;;;;12.95;5.58;;;;;;;-8.88;60.28;101600.33;1624401;87;21318;-58
2021/12/23 05:59:04;;;;;;;20.23;10.72;;;;;;;-8.86;60.29;101603.84;1624254;88;21262;-59
2021/12/23 06:02:11;;;;;;;32.30;18.12;;;;;;;-8.92;60.25;101605.23;1628495;87;21805;-58
2021/12/23 06:05:17;;;;;;;21.87;8.70;;;;;;;-8.97;60.46;101605.31;1626045;86;21667;-59
2021/12/23 06:08:28;;;;;;;15.45;7.53;;;;;;;-8.98;60.62;101605.34;1621919;86;21235;-58
2021/12/23 06:11:37;;;;;;;19.73;9.53;;;;;;;-8.94;61.11;101605.73;1617972;87;21742;-58
2021/12/23 06:14:42;;;;;;;18.02;8.30;;;;;;;-8.87;60.91;101606.92;1638331;86;21249;-59
2021/12/23 06:17:48;;;;;;;23.57;10.00;;;;;;;-8.79;60.93;101603.70;1623249;86;21233;-59
2021/12/23 06:20:57;;;;;;;28.70;10.68;;;;;;;-8.74;60.84;101607.59;1627600;87;21241;-58
2021/12/23 06:24:04;;;;;;;18.42;7.75;;;;;;;-8.70;60.93;101614.15;1627143;88;21498;-58
2021/12/23 06:27:12;;;;;;;13.32;7.25;;;;;;;-8.61;61.10;101616.63;1615665;88;21252;-58
2021/12/23 06:30:22;;;;;;;12.98;8.13;;;;;;;-8.51;61.11;101614.25;1599617;88;21759;-59
2021/12/23 06:33:30;;;;;;;14.28;7.30;;;;;;;-8.41;61.10;101617.63;1643650;86;21649;-58
2021/12/23 06:36:36;;;;;;;16.02;9.18;;;;;;;-8.36;61.03;101625.94;1637383;87;21273;-59
2021/12/23 06:39:46;;;;;;;14.70;9.43;;;;;;;-8.30;61.03;101622.28;1637365;87;21327;-59
2021/12/23 06:42:54;;;;;;;21.00;11.10;;;;;;;-8.24;60.97;101620.39;1637525;87;21229;-60
2021/12/23 06:46:02;;;;;;;19.25;10.55;;;;;;;-8.17;60.94;101627.77;1665384;83;21244;-59
2021/12/23 06:49:10;;;;;;;16.12;8.73;;;;;;;-8.11;60.98;101628.53;1672902;85;21258;-58
2021/12/23 06:52:15;;;;;;;15.93;7.22;;;;;;;-8.03;60.91;101631.92;1672528;85;21211;-59
2021/12/23 06:55:22;;;;;;;10.25;6.28;;;;;;;-8.02;60.72;101630.11;1666414;84;21225;-59
2021/12/23 06:58:32;;;;;;;11.57;6.65;;;;;;;-8.00;60.71;101629.20;1672083;85;21245;-61
2021/12/23 07:01:38;;;;;;;16.48;8.63;;;;;;;-7.93;60.63;101641.44;1670367;84;21225;-59
2021/12/23 07:04:48;;;;;;;22.07;10.95;;;;;;;-7.90;60.43;101636.53;1668687;85;21300;-58
2021/12/23 07:08:45;;;;;;;18.62;8.65;;;;;;;-7.92;60.27;101639.22;1651892;85;21228;-59
2021/12/23 07:11:10;;;;;;;14.85;8.90;;;;;;;-7.96;59.99;101641.50;1631872;85;21411;-59
2021/12/23 07:14:17;;;;;;;16.07;9.00;;;;;;;-8.06;59.86;101645.27;1669427;85;21245;-59
2021/12/23 07:17:28;;;;;;;13.93;7.50;;;;;;;-8.06;59.95;101649.24;1663165;86;21221;-60
2021/12/23 07:20:35;;;;;;;12.35;7.55;;;;;;;-8.10;59.87;101653.28;1665654;86;21897;-59
2021/12/23 07:23:43;;;;;;;14.83;8.50;;;;;;;-8.11;60.05;101647.13;1654006;86;21320;-59
2021/12/23 07:26:55;;;;;;;15.35;7.08;;;;;;;-8.07;60.08;101654.11;1653743;86;21804;-59
2021/12/23 07:30:07;;;;;;;12.85;7.47;;;;;;;-8.01;59.98;101651.81;1635471;86;21916;-63
2021/12/23 07:33:15;;;;;;;14.40;7.17;;;;;;;-8.12;59.68;101645.34;1652391;85;21590;-59
2021/12/23 07:36:27;;;;;;;15.08;7.45;;;;;;;-8.14;59.80;101648.51;1653194;87;21228;-59
2021/12/23 07:39:35;;;;;;;13.80;7.20;;;;;;;-8.14;59.82;101656.48;1652599;86;21237;-59
2021/12/23 07:42:54;;;;;;;16.97;7.08;;;;;;;-8.07;59.83;101664.73;1669380;85;21873;-58
2021/12/23 07:45:55;;;;;;;10.48;7.20;;;;;;;-8.05;59.83;101664.70;1664509;82;21729;-58
2021/12/23 07:49:01;;;;;;;15.50;6.90;;;;;;;-7.99;59.63;101670.78;1673451;84;21205;-59
2021/12/23 07:52:10;;;;;;;9.95;6.40;;;;;;;-7.93;59.66;101673.80;1656533;86;21260;-58
2021/12/23 07:55:16;;;;;;;10.30;6.47;;;;;;;-7.85;59.53;101682.02;1666638;85;21233;-58
2021/12/23 07:58:23;;;;;;;11.78;6.87;;;;;;;-7.85;59.10;101683.34;1653366;84;21236;-57
2021/12/23 10:39:15;;;;;;;8.48;5.50;;;;;;;-5.53;52.76;101630.16;1738282;82;21908;-53
2021/12/23 10:42:31;;;;;;;5.17;3.50;;;;;;;-5.53;52.50;101629.70;1735467;81;21169;-53
2021/12/23 10:45:55;;;;;;;7.58;5.08;;;;;;;-5.47;52.10;101630.01;1745463;81;21757;-53
2021/12/23 10:52:19;;;;;;;5.83;3.92;;;;;;;-5.52;51.24;101628.81;1749698;81;21165;-53
2021/12/23 10:59:14;;;;;;;7.25;4.75;;;;;;;-5.64;51.01;101623.81;1700401;82;21211;-53
2021/12/23 11:02:34;;;;;;;7.72;4.05;;;;;;;-5.66;51.20;101623.45;1656657;86;21215;-54
2021/12/23 11:05:37;;;;;;;7.35;4.62;;;;;;;-5.68;51.08;101615.50;1696308;83;21397;-53
2021/12/23 11:39:46;;;;;;;14.23;6.37;;;;;;;-5.40;50.64;101581.75;1724187;82;21736;-53
2021/12/23 11:43:02;;;;;;;6.95;4.70;;;;;;;-5.44;50.62;101577.89;1767964;80;21189;-54
2021/12/23 11:45:51;;;;;;;9.38;5.65;;;;;;;-5.44;50.80;101581.41;1745805;81;21192;-53
2021/12/23 11:49:00;;;;;;;8.58;5.47;;;;;;;-5.41;50.73;101583.13;1747316;81;21184;-54
2021/12/23 11:52:07;;;;;;;8.30;5.28;;;;;;;-5.38;50.67;101592.38;1768730;81;21205;-53
2021/12/23 11:55:15;;;;;;;9.60;5.50;;;;;;;-5.44;50.59;101586.75;1761322;79;21792;-53
2021/12/23 11:58:19;;;;;;;11.70;6.55;;;;;;;-5.44;50.68;101590.75;1739462;82;21229;-53
2021/12/23 12:01:30;;;;;;;9.33;5.35;;;;;;;-5.42;50.75;101585.40;1761680;80;21527;-53
2021/12/23 12:04:40;;;;;;;10.85;6.83;;;;;;;-5.40;50.79;101592.87;1769569;79;21680;-54
2021/12/23 12:07:48;;;;;;;11.22;6.03;;;;;;;-5.40;50.75;101584.42;1768942;80;21690;-54
2021/12/23 12:10:56;;;;;;;15.50;7.80;;;;;;;-5.40;50.67;101587.53;1765381;81;21785;-54
2021/12/23 12:14:01;;;;;;;12.88;7.08;;;;;;;-5.44;50.86;101588.56;1761206;81;21325;-54
2021/12/23 12:17:36;;;;;;;11.10;6.08;;;;;;;-5.41;50.83;101582.69;1675612;83;21197;-53
2021/12/23 12:20:48;;;;;;;15.20;8.43;;;;;;;-5.42;50.67;101584.92;1731272;82;21192;-54
2021/12/23 12:23:51;;;;;;;12.10;6.62;;;;;;;-5.46;50.75;101587.28;1746518;80;21247;-54
2021/12/23 12:27:08;;;;;;;10.28;6.40;;;;;;;-5.45;50.77;101586.80;1751101;80;21756;-55
2021/12/23 12:30:17;;;;;;;9.28;6.03;;;;;;;-5.42;50.93;101590.25;1765324;80;21192;-54
2021/12/23 12:33:39;;;;;;;29.18;17.15;;;;;;;-5.31;51.03;101584.61;1747623;81;21271;-54
2021/12/23 12:36:55;;;;;;;13.62;8.90;;;;;;;-5.16;51.10;101582.34;1734673;82;21227;-54
2021/12/23 12:40:00;;;;;;;10.05;5.55;;;;;;;-5.09;50.88;101587.88;1754561;81;21230;-54
2021/12/23 12:43:06;;;;;;;10.03;6.17;;;;;;;-5.04;50.64;101585.94;1760975;81;21180;-54
2021/12/23 12:46:11;;;;;;;11.05;7.50;;;;;;;-5.03;50.52;101582.37;1765237;80;21188;-53
2021/12/23 12:49:30;;;;;;;10.93;5.58;;;;;;;-4.96;50.52;101581.68;1762552;80;21176;-54
2021/12/23 12:52:46;;;;;;;10.10;6.90;;;;;;;-4.90;50.35;101588.18;1750784;80;21219;-54
2021/12/23 12:55:51;;;;;;;10.63;6.10;;;;;;;-4.87;50.11;101593.42;1756392;80;21195;-54
2021/12/23 12:59:01;;;;;;;8.50;6.05;;;;;;;-4.88;49.90;101579.64;1736566;81;21192;-55
2021/12/23 13:02:07;;;;;;;13.80;7.22;;;;;;;-4.91;49.96;101584.62;1762011;80;21756;-54
2021/12/23 13:05:19;;;;;;;15.95;8.40;;;;;;;-4.96;49.68;101591.91;1756525;81;21870;-53
2021/12/23 13:08:39;;;;;;;15.30;8.40;;;;;;;-5.10;49.74;101588.80;1736253;81;21769;-53
2021/12/23 13:11:52;;;;;;;16.10;8.70;;;;;;;-5.12;50.05;101603.98;1762676;81;21195;-54
2021/12/23 13:15:22;;;;;;;23.40;12.85;;;;;;;-5.12;50.08;101598.65;1744043;81;21616;-54
2021/12/23 13:18:31;;;;;;;25.32;12.28;;;;;;;-5.20;50.08;101591.34;1769083;81;21200;-55
2021/12/23 13:21:36;;;;;;;24.63;12.55;;;;;;;-5.25;50.23;101587.94;1769255;79;21698;-54
2021/12/23 13:24:44;;;;;;;19.37;9.38;;;;;;;-5.26;50.32;101598.20;1766617;79;21223;-54
2021/12/23 13:27:52;;;;;;;25.45;11.40;;;;;;;-5.32;50.29;101595.73;1767139;80;21181;-53
2021/12/23 13:30:56;;;;;;;19.57;11.15;;;;;;;-5.45;50.33;101605.02;1767028;79;21185;-54
2021/12/23 13:34:17;;;;;;;31.37;13.85;;;;;;;-5.57;50.48;101602.73;1768172;80;21201;-53
2021/12/23 13:37:23;;;;;;;25.45;14.25;;;;;;;-5.73;50.67;101609.42;1767554;80;21264;-54
2021/12/23 13:40:43;;;;;;;19.87;10.55;;;;;;;-5.81;51.06;101600.77;1768059;80;22068;-53
2021/12/23 13:43:51;;;;;;;15.45;10.20;;;;;;;-5.86;51.39;101608.50;1757462;81;21557;-53
2021/12/23 13:47:16;;;;;;;17.73;9.68;;;;;;;-5.91;51.67;101609.11;1768374;80;21197;-54
2021/12/23 13:50:27;;;;;;;24.70;12.30;;;;;;;-6.04;51.86;101611.21;1768290;79;21252;-54
2021/12/23 13:53:33;;;;;;;38.13;18.17;;;;;;;-6.11;52.24;101613.65;1767262;80;21249;-53
2021/12/23 13:56:43;;;;;;;34.65;16.90;;;;;;;-6.12;52.54;101613.69;1745390;80;21578;-54
2021/12/23 13:59:49;;;;;;;39.27;21.57;;;;;;;-6.17;52.67;101606.27;1747898;80;21689;-53
2021/12/23 14:03:01;;;;;;;55.25;27.70;;;;;;;-6.23;52.86;101607.30;1748510;80;21165;-53
2021/12/23 14:06:09;;;;;;;69.07;30.30;;;;;;;-6.30;53.03;101615.05;1765310;80;21216;-53
2021/12/23 14:09:14;;;;;;;68.45;28.62;;;;;;;-6.36;53.23;101614.73;1767045;80;21188;-54
2021/12/23 14:12:28;;;;;;;87.57;43.05;;;;;;;-6.40;53.46;101614.42;1767511;80;21750;-54
2021/12/23 14:15:40;;;;;;;102.25;44.83;;;;;;;-6.45;53.73;101604.78;1756661;79;21587;-55
2021/12/23 14:18:58;;;;;;;;;;;;;;;-6.50;53.91;101604.05;1764276;80;21722;-53
2021/12/23 14:25:19;;;;;;;59.08;28.25;;;;;;;-6.69;54.42;101599.63;1769400;79;21554;-53
2021/12/23 14:28:32;;;;;;;80.30;36.93;;;;;;;-6.82;54.59;101597.33;1769757;80;21172;-54
2021/12/23 14:31:51;;;;;;;30.35;16.90;;;;;;;-6.91;54.90;101606.39;1759003;80;21213;-53
2021/12/23 14:34:56;;;;;;;31.35;15.88;;;;;;;-6.96;55.18;101604.30;1740354;81;21212;-53
2021/12/23 14:38:08;;;;;;;26.60;14.43;;;;;;;-7.02;55.46;101603.56;1768834;81;21193;-54
2021/12/23 14:41:20;;;;;;;34.08;17.70;;;;;;;-7.08;55.78;101614.35;1768406;79;21299;-54
2021/12/23 14:44:37;;;;;;;39.55;23.75;;;;;;;-7.15;55.97;101610.10;1766657;80;21749;-56
2021/12/23 14:47:49;;;;;;;44.48;23.25;;;;;;;-7.18;56.23;101610.18;1765193;80;21748;-55
2021/12/23 14:51:01;;;;;;;43.02;23.60;;;;;;;-7.18;56.45;101616.83;1765585;79;21785;-55
2021/12/23 14:54:25;;;;;;;45.80;27.87;;;;;;;-7.17;56.52;101617.23;1768623;80;21382;-56
2021/12/23 14:57:38;;;;;;;44.83;22.32;;;;;;;-7.18;56.66;101605.70;1768605;80;21236;-53
2021/12/23 15:00:47;;;;;;;37.77;21.93;;;;;;;-7.23;56.73;101610.73;1768355;80;21193;-54
2021/12/23 15:03:54;;;;;;;38.85;21.70;;;;;;;-7.31;56.84;101606.92;1751731;80;21621;-56
2021/12/23 15:07:13;;;;;;;55.20;27.00;;;;;;;-7.35;57.08;101606.55;1758127;81;21479;-53
2021/12/23 15:10:19;;;;;;;47.98;26.60;;;;;;;-7.41;57.28;101608.47;1737359;81;21236;-55
2021/12/23 15:13:44;;;;;;;50.52;28.47;;;;;;;-7.44;57.52;101611.20;1764511;80;22091;-53
2021/12/23 15:16:56;;;;;;;117.25;47.50;;;;;;;-7.46;57.75;101607.69;1766323;79;21189;-53
2021/12/23 15:20:02;;;;;;;143.65;54.18;;;;;;;-7.48;57.91;101608.20;1733497;79;21534;-53
2021/12/23 15:23:08;;;;;;;196.10;65.72;;;;;;;-7.51;58.01;101605.14;1733600;82;21740;-53
2021/12/23 15:26:38;;;;;;;134.60;51.83;;;;;;;-7.55;58.15;101605.24;1733366;81;21215;-52
2021/12/23 15:29:54;;;;;;;79.92;42.90;;;;;;;-7.58;58.20;101610.63;1668950;84;22157;-53
2021/12/23 15:33:01;;;;;;;84.80;45.95;;;;;;;-7.64;58.39;101604.13;1705826;82;21604;-53
2021/12/23 15:36:08;;;;;;;91.02;46.53;;;;;;;-7.70;58.61;101611.75;1727881;81;21203;-53
2021/12/23 15:39:34;;;;;;;98.72;48.23;;;;;;;-7.77;58.72;101611.00;1717016;82;21474;-53
2021/12/23 15:42:40;;;;;;;95.28;49.45;;;;;;;-7.85;59.00;101612.94;1733614;82;21199;-52
2021/12/23 15:45:48;;;;;;;85.42;45.88;;;;;;;-7.92;59.26;101610.00;1729593;81;21819;-53
2021/12/23 15:48:53;;;;;;;86.05;44.65;;;;;;;-7.96;59.45;101610.95;1670230;85;21226;-53
2021/12/23 15:52:01;;;;;;;92.33;46.02;;;;;;;-8.01;59.56;101610.64;1713109;82;21207;-53
2021/12/23 15:55:06;;;;;;;84.85;42.48;;;;;;;-8.06;59.69;101602.77;1706307;82;22070;-53
2021/12/23 15:58:12;;;;;;;82.67;43.38;;;;;;;-8.09;59.88;101604.16;1706118;84;21263;-53
2021/12/23 16:01:18;;;;;;;92.72;46.92;;;;;;;-8.11;59.91;101604.62;1706034;82;21343;-53
2021/12/23 16:04:33;;;;;;;79.35;42.23;;;;;;;-8.25;59.65;101601.40;1706169;84;21352;-53
2021/12/23 16:07:35;;;;;;;100.53;48.85;;;;;;;-8.33;60.00;101598.01;1705940;84;21716;-54
2021/12/23 16:10:41;;;;;;;118.75;51.10;;;;;;;-8.33;60.39;101596.69;1705605;82;21199;-52
2021/12/23 16:13:48;;;;;;;119.20;54.55;;;;;;;-8.29;60.60;101601.48;1705293;84;21247;-53
2021/12/23 16:16:53;;;;;;;238.12;104.55;;;;;;;-8.29;60.70;101606.33;1706159;82;21800;-52
2021/12/23 16:19:59;;;;;;;172.07;79.72;;;;;;;-8.32;60.72;101602.41;1711349;81;21189;-52
2021/12/23 16:23:05;;;;;;;175.55;84.67;;;;;;;-8.33;60.86;101599.78;1741480;82;21196;-52
2021/12/23 16:26:10;;;;;;;149.05;72.45;;;;;;;-8.38;60.76;101597.21;1740855;81;21208;-52
2021/12/23 16:29:17;;;;;;;119.87;59.53;;;;;;;-8.43;60.91;101589.78;1748288;81;21840;-52
2021/12/23 16:32:23;;;;;;;155.48;71.12;;;;;;;-8.45;61.16;101594.23;1753744;81;21188;-53
2021/12/23 16:35:31;;;;;;;173.90;79.70;;;;;;;-8.44;61.29;101601.31;1742588;81;21324;-52
2021/12/23 16:38:36;;;;;;;186.65;87.90;;;;;;;-8.46;61.32;101592.49;1760335;80;21212;-53
2021/12/23 16:41:40;;;;;;;199.60;88.97;;;;;;;-8.48;61.29;101593.44;1746137;80;21348;-53
2021/12/23 16:44:49;;;;;;;201.30;88.58;;;;;;;-8.50;61.36;101598.74;1767279;81;21761;-52
2021/12/23 16:47:54;;;;;;;184.28;80.75;;;;;;;-8.57;61.27;101599.77;1737313;82;21712;-53
2021/12/23 16:51:03;;;;;;;162.43;71.15;;;;;;;-8.61;61.22;101590.57;1700543;83;21703;-52
2021/12/23 16:54:10;;;;;;;161.35;69.90;;;;;;;-8.64;61.37;101586.17;1701067;84;21724;-54
2021/12/23 17:00:33;;;;;;;161.12;71.05;;;;;;;-8.73;61.19;101576.17;1725505;81;21777;-52
2021/12/23 17:03:45;;;;;;;144.10;68.02;;;;;;;-8.79;61.22;101574.95;1746732;81;21185;-55
2021/12/23 17:06:49;;;;;;;154.80;67.62;;;;;;;-8.80;61.32;101584.68;1768607;81;21316;-53
2021/12/23 17:09:54;;;;;;;138.65;62.20;;;;;;;-8.80;61.39;101579.85;1769315;80;21784;-53
2021/12/23 17:13:01;;;;;;;111.72;50.00;;;;;;;-8.83;61.43;101570.15;1770536;80;21188;-53
2021/12/23 17:16:09;;;;;;;98.90;45.15;;;;;;;-8.85;61.40;101569.33;1770945;80;21232;-53
2021/12/23 17:19:19;;;;;;;85.15;37.98;;;;;;;-8.85;61.51;101571.98;1770207;81;21255;-53
2021/12/23 17:22:28;;;;;;;57.13;28.23;;;;;;;-8.85;61.52;101561.37;1731733;82;21212;-53
2021/12/23 17:25:35;;;;;;;55.12;25.27;;;;;;;-8.86;61.50;101564.90;1769617;80;21686;-53
2021/12/23 17:28:40;;;;;;;48.63;22.13;;;;;;;-8.83;61.58;101568.82;1734163;82;21180;-55
2021/12/23 17:31:46;;;;;;;36.58;19.07;;;;;;;-8.81;61.56;101559.07;1769765;80;21216;-54
2021/12/23 17:34:55;;;;;;;40.40;18.80;;;;;;;-8.81;61.48;101559.07;1732941;82;21255;-56
2021/12/23 17:38:05;;;;;;;35.85;17.65;;;;;;;-8.79;61.38;101554.63;1771110;80;21261;-53
2021/12/23 17:41:11;;;;;;;36.98;18.73;;;;;;;-8.80;61.28;101558.16;1769896;79;21228;-53
2021/12/23 17:44:16;;;;;;;36.93;17.27;;;;;;;-8.81;61.29;101557.74;1770387;80;21260;-53
2021/12/23 17:47:24;;;;;;;30.68;16.77;;;;;;;-8.81;61.26;101561.72;1770666;80;21867;-53
2021/12/23 17:50:31;;;;;;;33.90;16.93;;;;;;;-8.81;61.14;101557.74;1762576;80;21894;-52
2021/12/23 17:53:39;;;;;;;34.08;16.82;;;;;;;-8.82;61.06;101563.97;1770756;80;21347;-53